sensor_id;sensor_type;location;lat;lon;timestamp;temperature;humidity
7366;DHT22;3723;52.220;8.792;2022-08-19T00:00:39;16.60;99.90
7366;DHT22;3723;52.220;8.792;2022-08-19T00:03:06;16.50;99.90
7366;DHT22;3723;52.220;8.792;2022-08-19T00:05:35;16.50;99.90
7366;DHT22;3723;52.220;8.792;2022-08-19T00:08:03;16.50;99.90
7366;DHT22;3723;52.220;8.792;2022-08-19T00:10:30;16.40;99.90
7366;DHT22;3723;52.220;8.792;2022-08-19T00:12:57;16.40;99.90
7366;DHT22;3723;52.220;8.792;2022-08-19T00:15:24;16.40;99.90
7366;DHT22;3723;52.220;8.792;2022-08-19T00:17:51;16.30;99.90
7366;DHT22;3723;52.220;8.792;2022-08-19T00:20:20;16.30;99.90
7366;DHT22;3723;52.220;8.792;2022-08-19T00:22:49;16.30;99.90
7366;DHT22;3723;52.220;8.792;2022-08-19T00:25:17;16.20;99.90
7366;DHT22;3723;52.220;8.792;2022-08-19T00:27:44;16.20;99.90
7366;DHT22;3723;52.220;8.792;2022-08-19T00:30:17;16.20;99.90
7366;DHT22;3723;52.220;8.792;2022-08-19T00:32:43;16.20;99.90
7366;DHT22;3723;52.220;8.792;2022-08-19T00:35:11;16.10;99.90
7366;DHT22;3723;52.220;8.792;2022-08-19T00:37:38;16.10;99.90
7366;DHT22;3723;52.220;8.792;2022-08-19T00:40:12;16.10;99.90
7366;DHT22;3723;52.220;8.792;2022-08-19T00:42:39;16.20;99.90
7366;DHT22;3723;52.220;8.792;2022-08-19T00:45:10;16.10;99.90
7366;DHT22;3723;52.220;8.792;2022-08-19T00:47:38;16.10;99.90
7366;DHT22;3723;52.220;8.792;2022-08-19T00:50:06;16.20;99.90
7366;DHT22;3723;52.220;8.792;2022-08-19T00:52:37;16.20;99.90
7366;DHT22;3723;52.220;8.792;2022-08-19T00:55:07;16.10;99.90
7366;DHT22;3723;52.220;8.792;2022-08-19T00:57:41;16.20;99.90
7366;DHT22;3723;52.220;8.792;2022-08-19T01:00:13;16.20;99.90
7366;DHT22;3723;52.220;8.792;2022-08-19T01:02:41;16.10;99.90
7366;DHT22;3723;52.220;8.792;2022-08-19T01:05:11;16.10;99.90
7366;DHT22;3723;52.220;8.792;2022-08-19T01:07:47;16.20;99.90
7366;DHT22;3723;52.220;8.792;2022-08-19T01:10:22;16.10;99.90
7366;DHT22;3723;52.220;8.792;2022-08-19T01:12:52;16.10;99.90
7366;DHT22;3723;52.220;8.792;2022-08-19T01:15:23;16.00;99.90
7366;DHT22;3723;52.220;8.792;2022-08-19T01:17:55;16.00;99.90
7366;DHT22;3723;52.220;8.792;2022-08-19T01:20:24;15.90;99.90
7366;DHT22;3723;52.220;8.792;2022-08-19T01:22:56;15.90;99.90
7366;DHT22;3723;52.220;8.792;2022-08-19T01:25:26;15.90;99.90
7366;DHT22;3723;52.220;8.792;2022-08-19T01:27:55;15.90;99.90
7366;DHT22;3723;52.220;8.792;2022-08-19T01:30:26;15.90;99.90
7366;DHT22;3723;52.220;8.792;2022-08-19T01:32:55;15.90;99.90
7366;DHT22;3723;52.220;8.792;2022-08-19T01:35:24;15.80;99.90
7366;DHT22;3723;52.220;8.792;2022-08-19T01:38:07;15.70;99.90
7366;DHT22;3723;52.220;8.792;2022-08-19T01:40:38;15.70;99.90
7366;DHT22;3723;52.220;8.792;2022-08-19T01:43:06;15.60;99.90
7366;DHT22;3723;52.220;8.792;2022-08-19T01:45:34;15.60;99.90
7366;DHT22;3723;52.220;8.792;2022-08-19T01:48:03;15.50;99.90
7366;DHT22;3723;52.220;8.792;2022-08-19T01:50:31;15.50;99.90
7366;DHT22;3723;52.220;8.792;2022-08-19T01:52:59;15.50;99.90
7366;DHT22;3723;52.220;8.792;2022-08-19T01:55:28;15.40;99.90
7366;DHT22;3723;52.220;8.792;2022-08-19T01:58:00;15.40;99.90
7366;DHT22;3723;52.220;8.792;2022-08-19T02:00:30;15.40;99.90
7366;DHT22;3723;52.220;8.792;2022-08-19T02:02:58;15.40;99.90
7366;DHT22;3723;52.220;8.792;2022-08-19T02:05:27;15.30;99.90
7366;DHT22;3723;52.220;8.792;2022-08-19T02:07:54;15.30;1.00
7366;DHT22;3723;52.220;8.792;2022-08-19T02:10:22;15.20;1.00
7366;DHT22;3723;52.220;8.792;2022-08-19T02:12:51;15.10;99.90
7366;DHT22;3723;52.220;8.792;2022-08-19T02:15:19;15.10;99.90
7366;DHT22;3723;52.220;8.792;2022-08-19T02:17:48;15.10;99.90
7366;DHT22;3723;52.220;8.792;2022-08-19T02:20:15;15.00;1.00
7366;DHT22;3723;52.220;8.792;2022-08-19T02:22:45;15.00;99.90
7366;DHT22;3723;52.220;8.792;2022-08-19T02:25:13;14.90;99.90
7366;DHT22;3723;52.220;8.792;2022-08-19T02:27:44;14.90;99.90
7366;DHT22;3723;52.220;8.792;2022-08-19T02:30:18;14.90;99.90
7366;DHT22;3723;52.220;8.792;2022-08-19T07:32:37;27.80;99.90
7366;DHT22;3723;52.220;8.792;2022-08-19T07:35:05;27.80;99.90
7366;DHT22;3723;52.220;8.792;2022-08-19T07:37:36;28.10;99.90
7366;DHT22;3723;52.220;8.792;2022-08-19T07:40:10;28.70;99.90
7366;DHT22;3723;52.220;8.792;2022-08-19T07:42:37;29.30;99.90
7366;DHT22;3723;52.220;8.792;2022-08-19T07:45:09;29.80;99.90
7366;DHT22;3723;52.220;8.792;2022-08-19T07:47:41;30.00;99.90
7366;DHT22;3723;52.220;8.792;2022-08-19T07:50:10;30.20;99.90
7366;DHT22;3723;52.220;8.792;2022-08-19T07:52:38;30.10;99.90
7366;DHT22;3723;52.220;8.792;2022-08-19T07:55:20;30.10;99.90
7366;DHT22;3723;52.220;8.792;2022-08-19T07:57:49;30.00;99.90
7366;DHT22;3723;52.220;8.792;2022-08-19T08:00:19;30.20;99.90
7366;DHT22;3723;52.220;8.792;2022-08-19T08:02:47;30.10;99.90
7366;DHT22;3723;52.220;8.792;2022-08-19T08:05:13;29.80;99.90
7366;DHT22;3723;52.220;8.792;2022-08-19T08:07:59;29.40;99.90
7366;DHT22;3723;52.220;8.792;2022-08-19T08:10:44;29.30;99.90
7366;DHT22;3723;52.220;8.792;2022-08-19T08:13:11;29.40;99.90
7366;DHT22;3723;52.220;8.792;2022-08-19T08:15:41;29.80;99.90
7366;DHT22;3723;52.220;8.792;2022-08-19T08:18:10;30.20;99.90
7366;DHT22;3723;52.220;8.792;2022-08-19T08:20:48;30.50;99.90
7366;DHT22;3723;52.220;8.792;2022-08-19T08:23:16;30.20;99.90
7366;DHT22;3723;52.220;8.792;2022-08-19T08:25:53;29.70;99.90
7366;DHT22;3723;52.220;8.792;2022-08-19T08:28:21;29.40;99.90
7366;DHT22;3723;52.220;8.792;2022-08-19T08:30:58;29.60;99.90
7366;DHT22;3723;52.220;8.792;2022-08-19T08:33:28;29.90;99.90
7366;DHT22;3723;52.220;8.792;2022-08-19T08:35:56;30.10;99.90
7366;DHT22;3723;52.220;8.792;2022-08-19T08:38:24;30.30;99.90
7366;DHT22;3723;52.220;8.792;2022-08-19T08:40:53;30.50;99.90
7366;DHT22;3723;52.220;8.792;2022-08-19T08:43:40;30.50;99.90
7366;DHT22;3723;52.220;8.792;2022-08-19T08:46:19;30.70;99.90
7366;DHT22;3723;52.220;8.792;2022-08-19T08:48:53;30.70;99.90
7366;DHT22;3723;52.220;8.792;2022-08-19T08:51:29;30.40;99.90
7366;DHT22;3723;52.220;8.792;2022-08-19T08:53:59;30.60;99.90
7366;DHT22;3723;52.220;8.792;2022-08-19T08:56:32;30.50;99.90
7366;DHT22;3723;52.220;8.792;2022-08-19T08:59:02;30.40;99.90
7366;DHT22;3723;52.220;8.792;2022-08-19T09:01:35;30.40;99.90
7366;DHT22;3723;52.220;8.792;2022-08-19T09:04:03;30.30;99.90
7366;DHT22;3723;52.220;8.792;2022-08-19T09:06:38;30.40;99.90
7366;DHT22;3723;52.220;8.792;2022-08-19T09:09:15;30.70;99.90
7366;DHT22;3723;52.220;8.792;2022-08-19T09:12:04;30.70;99.90
7366;DHT22;3723;52.220;8.792;2022-08-19T09:14:37;30.90;99.90
7366;DHT22;3723;52.220;8.792;2022-08-19T09:17:09;31.00;99.90
7366;DHT22;3723;52.220;8.792;2022-08-19T09:19:48;31.00;99.90
7366;DHT22;3723;52.220;8.792;2022-08-19T09:22:17;31.00;99.90
7366;DHT22;3723;52.220;8.792;2022-08-19T09:24:47;31.00;99.40
7366;DHT22;3723;52.220;8.792;2022-08-19T09:27:14;30.80;98.20
7366;DHT22;3723;52.220;8.792;2022-08-19T09:29:41;30.90;98.30
7366;DHT22;3723;52.220;8.792;2022-08-19T09:32:10;31.20;99.00
7366;DHT22;3723;52.220;8.792;2022-08-19T09:34:38;31.50;98.90
7366;DHT22;3723;52.220;8.792;2022-08-19T09:37:09;31.50;98.20
7366;DHT22;3723;52.220;8.792;2022-08-19T09:39:39;31.70;98.40
7366;DHT22;3723;52.220;8.792;2022-08-19T09:42:08;31.80;98.20
7366;DHT22;3723;52.220;8.792;2022-08-19T09:44:39;31.80;98.00
7366;DHT22;3723;52.220;8.792;2022-08-19T09:47:07;32.20;99.90
7366;DHT22;3723;52.220;8.792;2022-08-19T09:49:43;32.40;97.70
7366;DHT22;3723;52.220;8.792;2022-08-19T09:52:11;32.40;97.10
7366;DHT22;3723;52.220;8.792;2022-08-19T09:54:38;32.40;96.60
7366;DHT22;3723;52.220;8.792;2022-08-19T09:57:06;32.30;95.70
7366;DHT22;3723;52.220;8.792;2022-08-19T09:59:35;32.20;94.90
7366;DHT22;3723;52.220;8.792;2022-08-19T10:02:02;32.40;94.50
7366;DHT22;3723;52.220;8.792;2022-08-19T10:04:30;32.40;94.50
7366;DHT22;3723;52.220;8.792;2022-08-19T10:07:12;32.50;93.90
7366;DHT22;3723;52.220;8.792;2022-08-19T10:09:39;32.60;93.70
7366;DHT22;3723;52.220;8.792;2022-08-19T10:12:07;32.90;93.60
7366;DHT22;3723;52.220;8.792;2022-08-19T10:14:34;33.00;93.50
7366;DHT22;3723;52.220;8.792;2022-08-19T10:17:02;33.10;93.20
7366;DHT22;3723;52.220;8.792;2022-08-19T10:19:30;33.20;92.50
7366;DHT22;3723;52.220;8.792;2022-08-19T10:22:03;32.70;91.10
7366;DHT22;3723;52.220;8.792;2022-08-19T10:24:32;32.50;88.40
7366;DHT22;3723;52.220;8.792;2022-08-19T10:27:11;32.40;86.40
7366;DHT22;3723;52.220;8.792;2022-08-19T10:29:40;32.50;86.30
7366;DHT22;3723;52.220;8.792;2022-08-19T10:32:08;32.50;86.50
7366;DHT22;3723;52.220;8.792;2022-08-19T10:34:37;32.60;84.90
7366;DHT22;3723;52.220;8.792;2022-08-19T10:37:05;32.80;86.10
7366;DHT22;3723;52.220;8.792;2022-08-19T10:39:36;33.10;86.80
7366;DHT22;3723;52.220;8.792;2022-08-19T10:42:05;33.30;88.40
7366;DHT22;3723;52.220;8.792;2022-08-19T10:44:36;33.40;87.90
7366;DHT22;3723;52.220;8.792;2022-08-19T10:47:04;33.60;88.10
7366;DHT22;3723;52.220;8.792;2022-08-19T10:49:31;33.40;84.20
7366;DHT22;3723;52.220;8.792;2022-08-19T10:52:18;33.20;83.20
7366;DHT22;3723;52.220;8.792;2022-08-19T10:55:01;33.30;82.10
7366;DHT22;3723;52.220;8.792;2022-08-19T10:57:45;33.50;83.50
7366;DHT22;3723;52.220;8.792;2022-08-19T11:00:13;33.30;79.50
7366;DHT22;3723;52.220;8.792;2022-08-19T11:02:40;33.50;81.20
7366;DHT22;3723;52.220;8.792;2022-08-19T11:05:10;33.90;82.70
7366;DHT22;3723;52.220;8.792;2022-08-19T11:07:38;34.50;84.30
7366;DHT22;3723;52.220;8.792;2022-08-19T11:10:09;34.80;86.10
7366;DHT22;3723;52.220;8.792;2022-08-19T11:12:37;35.10;84.40
7366;DHT22;3723;52.220;8.792;2022-08-19T11:15:08;35.10;83.80
7366;DHT22;3723;52.220;8.792;2022-08-19T11:17:37;34.70;80.60
7366;DHT22;3723;52.220;8.792;2022-08-19T11:20:07;34.50;76.80
7366;DHT22;3723;52.220;8.792;2022-08-19T11:22:36;34.40;76.40
7366;DHT22;3723;52.220;8.792;2022-08-19T11:25:04;34.70;79.10
7366;DHT22;3723;52.220;8.792;2022-08-19T11:27:33;35.20;81.60
7366;DHT22;3723;52.220;8.792;2022-08-19T11:30:00;35.70;83.70
7366;DHT22;3723;52.220;8.792;2022-08-19T11:32:29;36.20;84.80
7366;DHT22;3723;52.220;8.792;2022-08-19T11:34:56;36.00;82.80
7366;DHT22;3723;52.220;8.792;2022-08-19T11:37:29;35.70;78.20
7366;DHT22;3723;52.220;8.792;2022-08-19T11:40:06;35.40;73.90
7366;DHT22;3723;52.220;8.792;2022-08-19T11:42:34;35.30;72.90
7366;DHT22;3723;52.220;8.792;2022-08-19T11:45:20;34.60;68.20
7366;DHT22;3723;52.220;8.792;2022-08-19T11:47:47;34.50;66.30
7366;DHT22;3723;52.220;8.792;2022-08-19T11:50:15;34.50;66.50
7366;DHT22;3723;52.220;8.792;2022-08-19T11:52:43;34.70;66.20
7366;DHT22;3723;52.220;8.792;2022-08-19T11:55:10;34.80;66.00
7366;DHT22;3723;52.220;8.792;2022-08-19T11:57:39;35.00;67.10
7366;DHT22;3723;52.220;8.792;2022-08-19T12:00:07;35.30;68.80
7366;DHT22;3723;52.220;8.792;2022-08-19T12:02:35;35.70;69.80
7366;DHT22;3723;52.220;8.792;2022-08-19T12:05:04;35.30;67.30
7366;DHT22;3723;52.220;8.792;2022-08-19T12:07:32;34.70;62.20
7366;DHT22;3723;52.220;8.792;2022-08-19T12:09:59;34.10;58.60
7366;DHT22;3723;52.220;8.792;2022-08-19T12:12:26;34.10;59.30
7366;DHT22;3723;52.220;8.792;2022-08-19T12:14:55;34.40;59.70
7366;DHT22;3723;52.220;8.792;2022-08-19T12:17:24;34.50;60.40
7366;DHT22;3723;52.220;8.792;2022-08-19T12:19:52;35.00;63.60
7366;DHT22;3723;52.220;8.792;2022-08-19T12:22:21;35.40;62.60
7366;DHT22;3723;52.220;8.792;2022-08-19T12:24:48;35.70;67.20
7366;DHT22;3723;52.220;8.792;2022-08-19T12:27:17;36.30;69.10
7366;DHT22;3723;52.220;8.792;2022-08-19T12:29:45;36.40;66.10
7366;DHT22;3723;52.220;8.792;2022-08-19T12:32:13;36.40;69.70
7366;DHT22;3723;52.220;8.792;2022-08-19T12:34:43;36.60;66.40
7366;DHT22;3723;52.220;8.792;2022-08-19T12:37:10;37.00;74.20
7366;DHT22;3723;52.220;8.792;2022-08-19T12:39:39;36.90;65.80
7366;DHT22;3723;52.220;8.792;2022-08-19T12:42:06;36.70;61.90
7366;DHT22;3723;52.220;8.792;2022-08-19T12:44:34;36.40;60.50
7366;DHT22;3723;52.220;8.792;2022-08-19T12:47:14;36.30;59.70
7366;DHT22;3723;52.220;8.792;2022-08-19T12:49:42;36.10;59.50
7366;DHT22;3723;52.220;8.792;2022-08-19T12:52:09;35.90;55.50
7366;DHT22;3723;52.220;8.792;2022-08-19T12:54:40;35.60;52.30
7366;DHT22;3723;52.220;8.792;2022-08-19T12:57:10;35.30;48.70
7366;DHT22;3723;52.220;8.792;2022-08-19T12:59:52;35.10;47.90
7366;DHT22;3723;52.220;8.792;2022-08-19T13:02:21;35.10;47.40
7366;DHT22;3723;52.220;8.792;2022-08-19T13:04:48;35.30;49.50
7366;DHT22;3723;52.220;8.792;2022-08-19T13:07:15;35.30;50.00
7366;DHT22;3723;52.220;8.792;2022-08-19T13:09:42;35.30;49.10
7366;DHT22;3723;52.220;8.792;2022-08-19T13:12:08;35.50;47.60
7366;DHT22;3723;52.220;8.792;2022-08-19T13:14:39;35.50;48.70
7366;DHT22;3723;52.220;8.792;2022-08-19T13:17:12;35.30;45.00
7366;DHT22;3723;52.220;8.792;2022-08-19T13:19:41;35.10;46.70
7366;DHT22;3723;52.220;8.792;2022-08-19T13:22:08;34.80;43.90
7366;DHT22;3723;52.220;8.792;2022-08-19T13:24:35;34.90;45.30
7366;DHT22;3723;52.220;8.792;2022-08-19T13:27:03;34.80;45.40
7366;DHT22;3723;52.220;8.792;2022-08-19T13:29:30;35.10;45.90
7366;DHT22;3723;52.220;8.792;2022-08-19T13:32:14;35.30;46.70
7366;DHT22;3723;52.220;8.792;2022-08-19T13:35:00;35.30;59.00
7366;DHT22;3723;52.220;8.792;2022-08-19T13:37:27;35.40;48.00
7366;DHT22;3723;52.220;8.792;2022-08-19T13:40:09;35.30;46.00
7366;DHT22;3723;52.220;8.792;2022-08-19T13:42:41;35.30;46.10
7366;DHT22;3723;52.220;8.792;2022-08-19T13:45:09;35.40;47.00
7366;DHT22;3723;52.220;8.792;2022-08-19T13:47:37;35.70;47.20
7366;DHT22;3723;52.220;8.792;2022-08-19T13:50:13;35.60;47.70
7366;DHT22;3723;52.220;8.792;2022-08-19T13:52:40;35.60;44.30
7366;DHT22;3723;52.220;8.792;2022-08-19T13:55:08;35.50;45.30
7366;DHT22;3723;52.220;8.792;2022-08-19T13:57:39;35.40;44.90
7366;DHT22;3723;52.220;8.792;2022-08-19T14:00:08;35.60;46.40
7366;DHT22;3723;52.220;8.792;2022-08-19T14:02:36;35.70;46.70
7366;DHT22;3723;52.220;8.792;2022-08-19T14:05:05;35.80;46.50
7366;DHT22;3723;52.220;8.792;2022-08-19T14:07:34;35.70;46.50
7366;DHT22;3723;52.220;8.792;2022-08-19T14:10:01;35.90;45.60
7366;DHT22;3723;52.220;8.792;2022-08-19T14:12:28;35.50;49.20
7366;DHT22;3723;52.220;8.792;2022-08-19T14:15:09;35.80;46.20
7366;DHT22;3723;52.220;8.792;2022-08-19T14:17:39;36.50;50.60
7366;DHT22;3723;52.220;8.792;2022-08-19T14:20:11;37.20;51.70
7366;DHT22;3723;52.220;8.792;2022-08-19T14:22:40;37.50;67.20
7366;DHT22;3723;52.220;8.792;2022-08-19T14:25:10;37.00;51.00
7366;DHT22;3723;52.220;8.792;2022-08-19T14:27:39;35.90;45.50
7366;DHT22;3723;52.220;8.792;2022-08-19T14:30:07;34.70;37.20
7366;DHT22;3723;52.220;8.792;2022-08-19T14:32:35;33.40;33.20
7366;DHT22;3723;52.220;8.792;2022-08-19T14:35:02;32.60;29.20
7366;DHT22;3723;52.220;8.792;2022-08-19T14:37:45;32.00;27.40
7366;DHT22;3723;52.220;8.792;2022-08-19T14:40:14;31.50;27.10
7366;DHT22;3723;52.220;8.792;2022-08-19T14:42:41;31.30;27.90
7366;DHT22;3723;52.220;8.792;2022-08-19T14:45:09;31.20;27.70
7366;DHT22;3723;52.220;8.792;2022-08-19T14:47:36;30.90;26.40
7366;DHT22;3723;52.220;8.792;2022-08-19T14:50:05;31.20;27.90
7366;DHT22;3723;52.220;8.792;2022-08-19T14:52:32;31.80;31.60
7366;DHT22;3723;52.220;8.792;2022-08-19T14:55:00;32.50;37.00
7366;DHT22;3723;52.220;8.792;2022-08-19T14:57:28;33.60;41.30
7366;DHT22;3723;52.220;8.792;2022-08-19T14:59:55;34.20;47.00
7366;DHT22;3723;52.220;8.792;2022-08-19T15:02:23;34.00;46.20
7366;DHT22;3723;52.220;8.792;2022-08-19T15:04:50;33.50;43.40
7366;DHT22;3723;52.220;8.792;2022-08-19T15:07:17;32.50;38.80
7366;DHT22;3723;52.220;8.792;2022-08-19T15:09:44;31.70;37.20
7366;DHT22;3723;52.220;8.792;2022-08-19T15:12:12;31.90;39.70
7366;DHT22;3723;52.220;8.792;2022-08-19T15:14:39;32.70;43.30
7366;DHT22;3723;52.220;8.792;2022-08-19T15:17:07;33.70;47.10
7366;DHT22;3723;52.220;8.792;2022-08-19T15:19:39;34.30;51.00
7366;DHT22;3723;52.220;8.792;2022-08-19T15:22:06;34.40;50.50
7366;DHT22;3723;52.220;8.792;2022-08-19T15:24:32;34.40;50.60
7366;DHT22;3723;52.220;8.792;2022-08-19T15:27:00;34.60;50.90
7366;DHT22;3723;52.220;8.792;2022-08-19T15:29:29;34.60;49.50
7366;DHT22;3723;52.220;8.792;2022-08-19T15:31:56;34.20;47.70
7366;DHT22;3723;52.220;8.792;2022-08-19T15:37:44;32.50;39.20
7366;DHT22;3723;52.220;8.792;2022-08-19T15:40:11;31.50;34.70
7366;DHT22;3723;52.220;8.792;2022-08-19T15:42:39;31.00;34.80
7366;DHT22;3723;52.220;8.792;2022-08-19T15:45:10;31.00;38.20
7366;DHT22;3723;52.220;8.792;2022-08-19T15:47:38;31.70;40.30
7366;DHT22;3723;52.220;8.792;2022-08-19T15:50:07;32.50;46.10
7366;DHT22;3723;52.220;8.792;2022-08-19T15:55:52;34.20;53.00
7366;DHT22;3723;52.220;8.792;2022-08-19T15:58:19;34.00;50.70
7366;DHT22;3723;52.220;8.792;2022-08-19T16:01:23;33.90;49.30
7366;DHT22;3723;52.220;8.792;2022-08-19T16:04:07;33.50;47.80
7366;DHT22;3723;52.220;8.792;2022-08-19T16:06:52;32.90;43.60
7366;DHT22;3723;52.220;8.792;2022-08-19T16:09:21;32.70;44.10
7366;DHT22;3723;52.220;8.792;2022-08-19T16:11:48;32.60;45.20
7366;DHT22;3723;52.220;8.792;2022-08-19T16:14:17;32.50;56.00
7366;DHT22;3723;52.220;8.792;2022-08-19T16:16:46;32.50;44.60
7366;DHT22;3723;52.220;8.792;2022-08-19T16:19:16;32.50;44.40
7366;DHT22;3723;52.220;8.792;2022-08-19T16:21:46;32.50;44.60
7366;DHT22;3723;52.220;8.792;2022-08-19T16:24:15;32.20;55.30
7366;DHT22;3723;52.220;8.792;2022-08-19T16:26:43;31.90;42.40
7366;DHT22;3723;52.220;8.792;2022-08-19T16:29:11;31.50;42.40
7366;DHT22;3723;52.220;8.792;2022-08-19T16:31:40;31.30;39.90
7366;DHT22;3723;52.220;8.792;2022-08-19T16:34:10;31.40;41.10
7366;DHT22;3723;52.220;8.792;2022-08-19T16:36:39;31.40;44.40
7366;DHT22;3723;52.220;8.792;2022-08-19T16:39:13;31.50;42.30
7366;DHT22;3723;52.220;8.792;2022-08-19T16:44:33;31.10;42.30
7366;DHT22;3723;52.220;8.792;2022-08-19T16:47:02;30.80;41.60
7366;DHT22;3723;52.220;8.792;2022-08-19T16:49:39;30.70;41.00
7366;DHT22;3723;52.220;8.792;2022-08-19T16:52:07;30.40;38.20
7366;DHT22;3723;52.220;8.792;2022-08-19T16:54:35;30.10;39.30
7366;DHT22;3723;52.220;8.792;2022-08-19T16:57:03;29.60;37.40
7366;DHT22;3723;52.220;8.792;2022-08-19T16:59:31;29.00;36.10
7366;DHT22;3723;52.220;8.792;2022-08-19T17:01:58;28.50;37.40
7366;DHT22;3723;52.220;8.792;2022-08-19T17:04:25;28.20;37.10
7366;DHT22;3723;52.220;8.792;2022-08-19T17:06:54;28.20;35.10
7366;DHT22;3723;52.220;8.792;2022-08-19T17:09:22;28.20;37.50
7366;DHT22;3723;52.220;8.792;2022-08-19T17:11:49;28.30;40.60
7366;DHT22;3723;52.220;8.792;2022-08-19T17:14:16;28.40;42.00
7366;DHT22;3723;52.220;8.792;2022-08-19T17:16:44;28.40;40.50
7366;DHT22;3723;52.220;8.792;2022-08-19T17:19:13;28.20;40.50
7366;DHT22;3723;52.220;8.792;2022-08-19T17:21:41;27.90;42.80
7366;DHT22;3723;52.220;8.792;2022-08-19T17:24:10;27.70;41.30
7366;DHT22;3723;52.220;8.792;2022-08-19T17:26:37;27.40;42.50
7366;DHT22;3723;52.220;8.792;2022-08-19T17:29:18;27.20;40.90
7366;DHT22;3723;52.220;8.792;2022-08-19T17:31:45;27.00;49.00
7366;DHT22;3723;52.220;8.792;2022-08-19T17:34:28;26.90;50.00
7366;DHT22;3723;52.220;8.792;2022-08-19T17:36:58;26.70;46.10
7366;DHT22;3723;52.220;8.792;2022-08-19T17:39:26;26.60;50.40
7366;DHT22;3723;52.220;8.792;2022-08-19T17:41:53;26.50;50.00
7366;DHT22;3723;52.220;8.792;2022-08-19T17:44:20;26.40;53.20
7366;DHT22;3723;52.220;8.792;2022-08-19T17:46:47;26.20;51.20
7366;DHT22;3723;52.220;8.792;2022-08-19T17:49:14;26.10;55.90
7366;DHT22;3723;52.220;8.792;2022-08-19T17:51:45;25.90;53.20
7366;DHT22;3723;52.220;8.792;2022-08-19T17:54:46;25.70;49.90
7366;DHT22;3723;52.220;8.792;2022-08-19T17:57:14;25.50;53.70
7366;DHT22;3723;52.220;8.792;2022-08-19T17:59:41;25.30;51.70
7366;DHT22;3723;52.220;8.792;2022-08-19T18:02:09;25.10;50.90
7366;DHT22;3723;52.220;8.792;2022-08-19T18:04:37;25.00;54.80
7366;DHT22;3723;52.220;8.792;2022-08-19T18:07:04;24.90;59.30
7366;DHT22;3723;52.220;8.792;2022-08-19T18:09:33;24.70;61.90
7366;DHT22;3723;52.220;8.792;2022-08-19T18:12:02;24.50;60.90
7366;DHT22;3723;52.220;8.792;2022-08-19T18:14:32;24.30;64.90
7366;DHT22;3723;52.220;8.792;2022-08-19T18:17:06;24.10;61.90
7366;DHT22;3723;52.220;8.792;2022-08-19T18:19:35;24.00;67.50
7366;DHT22;3723;52.220;8.792;2022-08-19T18:22:03;23.80;64.70
7366;DHT22;3723;52.220;8.792;2022-08-19T18:24:30;23.60;76.50
7366;DHT22;3723;52.220;8.792;2022-08-19T18:26:57;23.50;61.90
7366;DHT22;3723;52.220;8.792;2022-08-19T18:29:25;23.40;66.50
7366;DHT22;3723;52.220;8.792;2022-08-19T18:31:52;23.40;69.50
7366;DHT22;3723;52.220;8.792;2022-08-19T18:34:22;23.20;70.60
7366;DHT22;3723;52.220;8.792;2022-08-19T18:36:49;23.10;64.90
7366;DHT22;3723;52.220;8.792;2022-08-19T18:39:16;23.00;70.30
7366;DHT22;3723;52.220;8.792;2022-08-19T18:42:00;22.90;74.30
7366;DHT22;3723;52.220;8.792;2022-08-19T18:44:46;22.70;76.30
7366;DHT22;3723;52.220;8.792;2022-08-19T18:47:30;22.60;75.00
7366;DHT22;3723;52.220;8.792;2022-08-19T18:50:14;22.50;78.20
7366;DHT22;3723;52.220;8.792;2022-08-19T18:52:41;22.40;76.30
7366;DHT22;3723;52.220;8.792;2022-08-19T18:55:10;22.30;80.60
7366;DHT22;3723;52.220;8.792;2022-08-19T18:57:37;22.20;86.50
7366;DHT22;3723;52.220;8.792;2022-08-19T19:00:07;22.10;90.30
7366;DHT22;3723;52.220;8.792;2022-08-19T19:02:36;21.90;91.70
7366;DHT22;3723;52.220;8.792;2022-08-19T19:05:05;21.80;90.30
7366;DHT22;3723;52.220;8.792;2022-08-19T19:07:32;21.60;94.00
7366;DHT22;3723;52.220;8.792;2022-08-19T19:09:59;21.60;97.90
7366;DHT22;3723;52.220;8.792;2022-08-19T19:12:28;21.40;99.90
7366;DHT22;3723;52.220;8.792;2022-08-19T19:14:57;21.30;99.90
7366;DHT22;3723;52.220;8.792;2022-08-19T19:17:25;21.10;99.90
7366;DHT22;3723;52.220;8.792;2022-08-19T19:19:53;21.00;99.90
7366;DHT22;3723;52.220;8.792;2022-08-19T19:22:22;20.90;99.90
7366;DHT22;3723;52.220;8.792;2022-08-19T19:24:49;20.70;99.90
7366;DHT22;3723;52.220;8.792;2022-08-19T19:27:18;20.60;99.90
7366;DHT22;3723;52.220;8.792;2022-08-19T19:29:48;20.50;99.90
7366;DHT22;3723;52.220;8.792;2022-08-19T19:32:18;20.40;99.90
7366;DHT22;3723;52.220;8.792;2022-08-19T19:34:47;20.30;99.90
7366;DHT22;3723;52.220;8.792;2022-08-19T19:37:14;20.30;99.90
7366;DHT22;3723;52.220;8.792;2022-08-19T19:39:42;20.20;99.90
7366;DHT22;3723;52.220;8.792;2022-08-19T19:42:10;20.20;99.90
7366;DHT22;3723;52.220;8.792;2022-08-19T19:44:38;20.20;99.90
7366;DHT22;3723;52.220;8.792;2022-08-19T19:47:05;20.10;99.90
7366;DHT22;3723;52.220;8.792;2022-08-19T19:49:32;20.10;99.90
7366;DHT22;3723;52.220;8.792;2022-08-19T19:52:01;20.00;99.90
7366;DHT22;3723;52.220;8.792;2022-08-19T19:54:28;19.90;99.90
7366;DHT22;3723;52.220;8.792;2022-08-19T19:56:57;19.90;99.90
7366;DHT22;3723;52.220;8.792;2022-08-19T19:59:24;19.80;99.90
7366;DHT22;3723;52.220;8.792;2022-08-19T20:01:51;19.80;99.90
7366;DHT22;3723;52.220;8.792;2022-08-19T20:04:19;19.90;99.90
7366;DHT22;3723;52.220;8.792;2022-08-19T20:06:47;19.90;99.90
7366;DHT22;3723;52.220;8.792;2022-08-19T20:09:15;19.90;99.90
7366;DHT22;3723;52.220;8.792;2022-08-19T20:11:44;19.90;99.90
7366;DHT22;3723;52.220;8.792;2022-08-19T20:14:13;20.00;99.90
7366;DHT22;3723;52.220;8.792;2022-08-19T20:16:42;20.00;99.90
7366;DHT22;3723;52.220;8.792;2022-08-19T20:19:12;20.00;99.90
7366;DHT22;3723;52.220;8.792;2022-08-19T20:21:40;20.00;99.90
7366;DHT22;3723;52.220;8.792;2022-08-19T20:24:11;20.00;99.90
7366;DHT22;3723;52.220;8.792;2022-08-19T20:26:41;20.00;99.90
7366;DHT22;3723;52.220;8.792;2022-08-19T20:29:09;20.10;99.90
7366;DHT22;3723;52.220;8.792;2022-08-19T20:31:36;20.10;99.90
7366;DHT22;3723;52.220;8.792;2022-08-19T20:34:04;20.10;99.90
7366;DHT22;3723;52.220;8.792;2022-08-19T20:36:32;20.10;99.90
7366;DHT22;3723;52.220;8.792;2022-08-19T20:39:01;20.20;99.90
7366;DHT22;3723;52.220;8.792;2022-08-19T20:41:28;20.20;99.90
7366;DHT22;3723;52.220;8.792;2022-08-19T20:43:57;20.10;99.90
7366;DHT22;3723;52.220;8.792;2022-08-19T20:46:24;20.10;99.90
7366;DHT22;3723;52.220;8.792;2022-08-19T20:48:53;20.10;99.90
7366;DHT22;3723;52.220;8.792;2022-08-19T20:51:26;20.10;99.90
7366;DHT22;3723;52.220;8.792;2022-08-19T20:53:54;20.10;99.90
7366;DHT22;3723;52.220;8.792;2022-08-19T20:56:20;20.10;99.90
7366;DHT22;3723;52.220;8.792;2022-08-19T20:58:47;20.00;99.90
7366;DHT22;3723;52.220;8.792;2022-08-19T21:01:18;20.10;99.90
7366;DHT22;3723;52.220;8.792;2022-08-19T21:03:45;20.10;99.90
7366;DHT22;3723;52.220;8.792;2022-08-19T21:06:13;20.20;99.90
7366;DHT22;3723;52.220;8.792;2022-08-19T21:08:40;20.30;99.90
7366;DHT22;3723;52.220;8.792;2022-08-19T21:11:08;20.30;99.90
7366;DHT22;3723;52.220;8.792;2022-08-19T21:13:36;20.40;99.90
7366;DHT22;3723;52.220;8.792;2022-08-19T21:16:06;20.50;99.90
7366;DHT22;3723;52.220;8.792;2022-08-19T21:18:34;20.60;99.90
7366;DHT22;3723;52.220;8.792;2022-08-19T21:21:02;20.70;99.90
7366;DHT22;3723;52.220;8.792;2022-08-19T21:23:31;20.80;99.90
7366;DHT22;3723;52.220;8.792;2022-08-19T21:25:59;20.80;99.90
7366;DHT22;3723;52.220;8.792;2022-08-19T21:28:26;20.90;99.90